Time;durP1;ratioP1;P1;durP2;ratioP2;P2;SDS_P1;SDS_P2;PMS_P1;PMS_P2;Temp;Humidity;BMP_temperature;BMP_pressure;BME280_temperature;BME280_humidity;BME280_pressure;Samples;Min_cycle;Max_cycle;Signal;HPM_P1;HPM_P2
2023/04/27 00:02:02;;;;;;;1999.90;999.90;;;31.00;91.60;;;;;;5059434;28;20037;-75
2023/04/27 00:04:30;;;;;;;1999.90;999.90;;;30.60;91.90;;;;;;5066384;28;20099;-73
2023/04/27 00:06:57;;;;;;;1999.90;999.90;;;30.50;91.90;;;;;;5056606;28;20032;-74
2023/04/27 00:09:25;;;;;;;1999.90;999.90;;;30.50;92.00;;;;;;5050741;28;20075;-72
2023/04/27 00:11:52;;;;;;;1999.90;999.90;;;30.60;92.00;;;;;;5052907;28;20029;-70
2023/04/27 00:14:19;;;;;;;1999.90;999.90;;;30.70;91.90;;;;;;5055028;28;20088;-70
2023/04/27 00:16:47;;;;;;;1999.90;999.90;;;30.70;91.70;;;;;;5053462;28;20052;-73
2023/04/27 00:19:15;;;;;;;1999.90;999.90;;;30.70;92.40;;;;;;5049308;28;20040;-71
2023/04/27 00:21:43;;;;;;;1999.90;999.90;;;31.10;91.30;;;;;;5050533;28;20036;-73
2023/04/27 00:24:10;;;;;;;1999.90;999.90;;;31.50;90.80;;;;;;5044599;28;20041;-74
2023/04/27 00:26:37;;;;;;;1999.90;999.90;;;31.40;90.70;;;;;;5049034;28;20475;-73
2023/04/27 00:29:05;;;;;;;1999.90;999.90;;;31.30;90.80;;;;;;5059713;28;20032;-73
2023/04/27 00:31:32;;;;;;;1999.90;999.90;;;31.20;90.60;;;;;;5064170;28;20083;-72
2023/04/27 00:33:59;;;;;;;1999.90;999.90;;;31.10;90.90;;;;;;5048855;28;20439;-71
2023/04/27 00:36:27;;;;;;;1999.90;999.90;;;31.10;90.90;;;;;;5047414;28;20104;-72
2023/04/27 00:38:54;;;;;;;1999.90;999.90;;;31.00;90.80;;;;;;5052631;28;20518;-73
2023/04/27 00:41:21;;;;;;;1999.90;999.90;;;31.10;90.90;;;;;;5050391;28;20078;-73
2023/04/27 00:43:49;;;;;;;1999.90;999.90;;;31.40;90.80;;;;;;5048254;28;20476;-72
2023/04/27 00:46:18;;;;;;;1999.90;999.90;;;31.40;90.50;;;;;;5047333;28;20391;-73
2023/04/27 00:48:46;;;;;;;1999.90;999.90;;;31.10;90.30;;;;;;5055976;28;20518;-72
2023/04/27 00:51:14;;;;;;;1999.90;999.90;;;30.80;90.90;;;;;;5050556;28;20054;-73
2023/04/27 00:53:42;;;;;;;1999.90;999.90;;;30.40;90.80;;;;;;5052717;28;20071;-73
2023/04/27 00:56:09;;;;;;;1999.90;999.90;;;30.40;91.10;;;;;;5049157;28;20036;-73
2023/04/27 00:58:37;;;;;;;1999.90;999.90;;;30.10;90.60;;;;;;5055639;28;20480;-72
2023/04/27 01:01:05;;;;;;;1999.90;999.90;;;30.10;91.10;;;;;;5054356;28;20048;-73
2023/04/27 01:03:32;;;;;;;1999.90;999.90;;;30.20;91.30;;;;;;5055180;28;20033;-71
2023/04/27 01:06:00;;;;;;;1999.90;999.90;;;30.30;90.70;;;;;;5054076;28;20025;-71
2023/04/27 01:08:28;;;;;;;1999.90;999.90;;;29.90;90.90;;;;;;5053621;28;20103;-70
2023/04/27 01:10:56;;;;;;;1999.90;999.90;;;29.90;91.10;;;;;;5058280;28;20044;-72
2023/04/27 01:13:23;;;;;;;1999.90;999.90;;;29.90;90.80;;;;;;5056134;28;20456;-71
2023/04/27 01:15:51;;;;;;;1999.90;999.90;;;29.80;90.60;;;;;;5059552;28;20033;-71
2023/04/27 01:18:18;;;;;;;1999.90;999.90;;;30.20;90.40;;;;;;5059636;28;20066;-71
2023/04/27 01:20:45;;;;;;;1999.90;999.90;;;30.70;90.70;;;;;;5055677;28;20131;-70
2023/04/27 01:23:14;;;;;;;1999.90;999.90;;;30.70;90.00;;;;;;5055564;28;20570;-71
2023/04/27 01:25:42;;;;;;;1999.90;999.90;;;30.90;89.90;;;;;;5056030;28;20418;-70
2023/04/27 01:28:09;;;;;;;1999.90;999.90;;;30.80;89.20;;;;;;5053138;28;20021;-71
2023/04/27 01:30:36;;;;;;;1999.90;999.90;;;30.90;88.90;;;;;;5054010;28;20112;-71
2023/04/27 01:33:04;;;;;;;1999.90;999.90;;;30.70;87.30;;;;;;5053982;28;20042;-72
2023/04/27 01:35:31;;;;;;;1999.90;999.90;;;30.40;88.10;;;;;;5053128;28;20060;-72
2023/04/27 01:37:59;;;;;;;1999.90;999.90;;;30.20;88.20;;;;;;5051848;28;20551;-72
2023/04/27 01:40:26;;;;;;;1999.90;999.90;;;29.90;90.20;;;;;;5053000;28;20040;-71
2023/04/27 01:42:53;;;;;;;1999.90;999.90;;;30.00;90.00;;;;;;5060797;28;20212;-71
2023/04/27 01:45:21;;;;;;;1999.90;999.90;;;30.10;89.20;;;;;;5046480;28;20021;-72
2023/04/27 01:47:51;;;;;;;1999.90;999.90;;;30.40;89.00;;;;;;5054980;28;20037;-71
2023/04/27 01:50:19;;;;;;;1999.90;999.90;;;29.70;88.10;;;;;;5056198;28;20061;-71
2023/04/27 01:52:46;;;;;;;1999.90;999.90;;;29.60;89.40;;;;;;5053512;28;20024;-72
2023/04/27 01:55:13;;;;;;;1999.90;999.90;;;29.70;90.00;;;;;;5051427;28;20516;-78
2023/04/27 01:57:41;;;;;;;1999.90;999.90;;;29.70;88.70;;;;;;5046408;28;20045;-71
2023/04/27 02:00:08;;;;;;;1999.90;999.90;;;29.60;89.40;;;;;;5052465;28;20364;-71
2023/04/27 02:02:36;;;;;;;1999.90;999.90;;;29.80;89.30;;;;;;5045989;28;20033;-72
2023/04/27 02:05:03;;;;;;;1999.90;999.90;;;29.90;89.30;;;;;;5044126;28;20098;-71
2023/04/27 02:07:31;;;;;;;1999.90;999.90;;;29.60;88.70;;;;;;5044036;28;20025;-71
2023/04/27 02:09:58;;;;;;;1999.90;999.90;;;29.60;89.50;;;;;;5050390;28;20124;-72
2023/04/27 02:12:25;;;;;;;1999.90;999.90;;;29.80;89.80;;;;;;5042549;28;20562;-72
2023/04/27 02:14:52;;;;;;;1999.90;999.90;;;29.90;89.00;;;;;;5046942;28;20712;-71
2023/04/27 02:17:20;;;;;;;1999.90;999.90;;;29.90;89.20;;;;;;5056126;28;20037;-73
2023/04/27 02:19:47;;;;;;;1999.90;999.90;;;29.90;88.40;;;;;;5049562;28;20060;-71
2023/04/27 02:22:15;;;;;;;1999.90;999.90;;;30.10;88.70;;;;;;5046160;28;20548;-71
2023/04/27 02:24:42;;;;;;;1999.90;999.90;;;30.20;87.50;;;;;;5041800;28;20141;-71
2023/04/27 02:27:09;;;;;;;1999.90;999.90;;;30.20;87.60;;;;;;5052119;28;20024;-72
2023/04/27 02:29:37;;;;;;;1999.90;999.90;;;29.60;87.10;;;;;;5056704;28;20017;-72
2023/04/27 02:32:08;;;;;;;1999.90;999.90;;;29.40;87.20;;;;;;5055251;28;20058;-72
2023/04/27 02:34:35;;;;;;;1999.90;999.90;;;29.40;87.10;;;;;;5049774;28;20070;-72
2023/04/27 02:37:02;;;;;;;1999.90;999.90;;;29.50;87.80;;;;;;5053047;28;20037;-71
2023/04/27 02:39:30;;;;;;;1999.90;999.90;;;29.50;87.10;;;;;;5050283;28;20039;-71
2023/04/27 02:41:57;;;;;;;1999.90;999.90;;;29.30;86.60;;;;;;5053542;28;20031;-71
2023/04/27 02:44:24;;;;;;;1999.90;999.90;;;29.50;85.50;;;;;;5059158;28;20032;-72
2023/04/27 02:46:52;;;;;;;1999.90;999.90;;;29.30;87.00;;;;;;5053368;28;20509;-72
2023/04/27 02:49:19;;;;;;;1999.90;999.90;;;28.90;87.20;;;;;;5055133;28;20045;-73
2023/04/27 02:51:47;;;;;;;1999.90;999.90;;;29.00;88.30;;;;;;5054339;28;20033;-72
2023/04/27 02:54:15;;;;;;;1999.90;999.90;;;29.00;89.60;;;;;;5050771;28;20040;-74
2023/04/27 02:56:42;;;;;;;1999.90;999.90;;;29.00;88.30;;;;;;5058687;28;20086;-72
2023/04/27 02:59:09;;;;;;;1999.90;999.90;;;29.20;87.90;;;;;;5057603;28;20040;-72
2023/04/27 03:01:37;;;;;;;1999.90;999.90;;;29.30;86.40;;;;;;5053646;28;20056;-72
2023/04/27 03:04:04;;;;;;;1999.90;999.90;;;29.50;88.00;;;;;;5060901;28;20491;-71
2023/04/27 03:06:32;;;;;;;1999.90;999.90;;;29.60;87.10;;;;;;5061047;28;20060;-72
2023/04/27 03:08:59;;;;;;;1999.90;999.90;;;29.60;87.30;;;;;;5060422;28;20064;-72
2023/04/27 03:11:26;;;;;;;1999.90;999.90;;;29.60;86.60;;;;;;5053903;28;20028;-72
2023/04/27 03:13:54;;;;;;;1999.90;999.90;;;29.40;86.80;;;;;;5062980;28;20024;-72
2023/04/27 03:16:21;;;;;;;1999.90;999.90;;;29.40;86.50;;;;;;5054438;28;20059;-72
2023/04/27 03:18:48;;;;;;;1999.90;999.90;;;29.30;84.50;;;;;;5054515;28;20036;-72
2023/04/27 03:21:16;;;;;;;1999.90;999.90;;;29.20;85.90;;;;;;5049339;28;20038;-73
2023/04/27 03:23:43;;;;;;;1999.90;999.90;;;29.10;85.90;;;;;;5056971;28;20047;-73
2023/04/27 03:26:12;;;;;;;1999.90;999.90;;;28.90;85.90;;;;;;5065498;28;20029;-72
2023/04/27 03:28:40;;;;;;;1999.90;999.90;;;29.00;85.60;;;;;;5057821;28;20063;-71
2023/04/27 03:31:10;;;;;;;1999.90;999.90;;;28.70;85.50;;;;;;5059010;28;20036;-71
2023/04/27 03:33:38;;;;;;;1999.90;999.90;;;28.30;85.90;;;;;;5056260;28;20052;-71
2023/04/27 03:36:07;;;;;;;1999.90;999.90;;;28.00;87.00;;;;;;5050701;28;20128;-71
2023/04/27 03:38:35;;;;;;;1999.90;999.90;;;27.70;87.90;;;;;;5051956;28;20040;-69
2023/04/27 03:41:02;;;;;;;1999.90;999.90;;;27.50;88.00;;;;;;5043516;28;20033;-72
2023/04/27 03:43:29;;;;;;;1999.90;999.90;;;27.40;87.40;;;;;;5053809;28;20033;-69
2023/04/27 03:45:57;;;;;;;1999.90;999.90;;;27.30;87.20;;;;;;5050335;28;20106;-69
2023/04/27 03:48:25;;;;;;;1999.90;999.90;;;27.30;87.60;;;;;;5049913;28;20100;-70
2023/04/27 03:50:52;;;;;;;1999.90;999.90;;;27.30;87.00;;;;;;5050410;28;20382;-72
2023/04/27 03:53:19;;;;;;;1999.90;999.90;;;27.10;87.30;;;;;;5049148;28;20025;-71
2023/04/27 03:55:47;;;;;;;1999.90;999.90;;;27.00;88.80;;;;;;5050815;28;20018;-70
2023/04/27 03:58:16;;;;;;;1999.90;999.90;;;27.00;88.90;;;;;;5057852;28;20103;-71
2023/04/27 04:00:43;;;;;;;1999.90;999.90;;;27.20;89.10;;;;;;5051646;28;20064;-70
2023/04/27 04:03:11;;;;;;;1999.90;999.90;;;27.30;88.90;;;;;;5046333;28;20141;-71
2023/04/27 04:05:38;;;;;;;1999.90;999.90;;;27.30;87.00;;;;;;5051638;28;20086;-71
2023/04/27 04:08:05;;;;;;;1999.90;999.90;;;27.30;87.30;;;;;;5054798;28;20036;-70
2023/04/27 04:10:33;;;;;;;1999.90;999.90;;;27.40;88.30;;;;;;5048009;28;20045;-70
2023/04/27 04:13:00;;;;;;;1999.90;999.90;;;27.30;88.20;;;;;;5046807;28;20170;-69
2023/04/27 04:15:27;;;;;;;1999.90;999.90;;;27.10;88.10;;;;;;5041467;28;20322;-70
2023/04/27 04:17:55;;;;;;;1999.90;999.90;;;26.90;88.60;;;;;;5046954;28;20143;-70
2023/04/27 04:20:22;;;;;;;1999.90;999.90;;;26.70;89.50;;;;;;5049846;28;20422;-70
2023/04/27 04:22:50;;;;;;;1999.90;999.90;;;26.60;89.40;;;;;;5050907;28;20166;-69
2023/04/27 04:25:17;;;;;;;1999.90;999.90;;;26.60;89.60;;;;;;5046003;28;20029;-69
2023/04/27 04:27:44;;;;;;;1999.90;999.90;;;26.50;90.00;;;;;;5044769;28;20040;-68
2023/04/27 04:30:12;;;;;;;1999.90;999.90;;;26.30;89.30;;;;;;5048126;28;20024;-71
2023/04/27 04:32:40;;;;;;;1999.90;999.90;;;26.30;90.00;;;;;;5054513;28;20033;-71
2023/04/27 04:35:07;;;;;;;1999.90;999.90;;;26.20;90.00;;;;;;5047189;28;20069;-71
2023/04/27 04:37:36;;;;;;;1999.90;999.90;;;26.10;89.10;;;;;;5054896;28;20021;-70
2023/04/27 04:40:07;;;;;;;1999.90;999.90;;;26.00;89.10;;;;;;5048290;28;20492;-71
2023/04/27 04:42:36;;;;;;;1999.90;999.90;;;25.90;88.80;;;;;;5053422;28;20037;-71
2023/04/27 04:45:04;;;;;;;1999.90;999.90;;;25.80;89.30;;;;;;5055010;28;20133;-71
2023/04/27 04:47:32;;;;;;;1999.90;999.90;;;25.90;90.00;;;;;;5054916;28;20720;-69
2023/04/27 04:50:00;;;;;;;1999.90;999.90;;;25.80;89.20;;;;;;5055584;28;20037;-70
2023/04/27 04:52:28;;;;;;;1999.90;999.90;;;25.70;89.50;;;;;;5051261;28;20659;-70
2023/04/27 04:54:55;;;;;;;1999.90;999.90;;;25.50;90.20;;;;;;5058626;28;20176;-70
2023/04/27 04:57:22;;;;;;;1999.90;999.90;;;25.40;90.40;;;;;;5052718;28;20051;-70
2023/04/27 04:59:50;;;;;;;1999.90;999.90;;;25.20;90.20;;;;;;5053313;28;20032;-70
2023/04/27 05:02:19;;;;;;;1999.90;999.90;;;25.10;90.50;;;;;;5054064;28;20037;-70
2023/04/27 05:04:46;;;;;;;1999.90;999.90;;;25.00;90.20;;;;;;5047098;28;20051;-70
2023/04/27 05:07:14;;;;;;;1999.90;999.90;;;24.90;90.30;;;;;;5062820;28;20033;-69
2023/04/27 05:09:41;;;;;;;1999.90;999.90;;;24.80;90.40;;;;;;5062797;28;20049;-69
2023/04/27 05:12:09;;;;;;;1999.90;999.90;;;24.80;90.90;;;;;;5053946;28;20165;-69
2023/04/27 05:14:36;;;;;;;1999.90;999.90;;;24.70;90.90;;;;;;5051927;28;20017;-70
2023/04/27 05:17:03;;;;;;;1999.90;999.90;;;24.60;91.10;;;;;;5052204;28;20044;-69
2023/04/27 05:19:31;;;;;;;1999.90;999.90;;;24.60;91.00;;;;;;5051205;28;20024;-70
2023/04/27 05:21:58;;;;;;;1999.90;999.90;;;24.60;91.30;;;;;;5049443;28;20431;-69
2023/04/27 05:24:26;;;;;;;1999.90;999.90;;;24.60;90.90;;;;;;5061664;28;20036;-70
2023/04/27 05:26:53;;;;;;;1999.90;999.90;;;24.60;90.90;;;;;;5067834;28;20024;-71
2023/04/27 05:29:21;;;;;;;1999.90;999.90;;;24.60;90.80;;;;;;5064415;28;20032;-71
2023/04/27 05:31:49;;;;;;;1999.90;999.90;;;24.70;90.70;;;;;;5056926;28;20131;-71
2023/04/27 05:34:16;;;;;;;1999.90;999.90;;;24.80;90.50;;;;;;5049468;28;20392;-70
2023/04/27 05:36:45;;;;;;;1999.90;999.90;;;24.90;90.50;;;;;;5044957;28;20029;-71
2023/04/27 05:39:13;;;;;;;1999.90;999.90;;;25.10;90.40;;;;;;5053779;28;20111;-71
2023/04/27 05:41:40;;;;;;;1999.90;999.90;;;25.10;90.10;;;;;;5046081;28;20036;-70
2023/04/27 05:44:08;;;;;;;1999.90;999.90;;;25.10;90.30;;;;;;5067982;28;20055;-71
2023/04/27 05:46:35;;;;;;;1999.90;999.90;;;25.10;90.60;;;;;;5047532;28;20558;-71
2023/04/27 05:49:02;;;;;;;1999.90;999.90;;;25.10;90.40;;;;;;5050414;28;20031;-71
2023/04/27 05:51:30;;;;;;;1999.90;999.90;;;25.20;90.60;;;;;;5046008;28;20025;-71
2023/04/27 05:53:58;;;;;;;1999.90;999.90;;;25.20;90.20;;;;;;5047802;28;20472;-71
2023/04/27 05:56:26;;;;;;;1999.90;999.90;;;25.20;90.40;;;;;;5055337;28;20153;-71
2023/04/27 05:58:53;;;;;;;1999.90;999.90;;;25.20;90.10;;;;;;5056632;28;20470;-71
2023/04/27 06:01:20;;;;;;;1999.90;999.90;;;25.20;89.80;;;;;;5051088;28;20036;-71
2023/04/27 06:03:48;;;;;;;1999.90;999.90;;;25.20;89.60;;;;;;5051646;28;20226;-71
2023/04/27 06:06:15;;;;;;;1999.90;999.90;;;25.10;88.70;;;;;;5050135;28;20108;-71
2023/04/27 06:08:42;;;;;;;1999.90;999.90;;;25.10;89.50;;;;;;5055193;28;20039;-71
2023/04/27 06:11:10;;;;;;;1999.90;999.90;;;25.20;89.20;;;;;;5055785;28;20074;-71
2023/04/27 06:13:37;;;;;;;1999.90;999.90;;;25.20;89.50;;;;;;5054337;28;20051;-70
2023/04/27 06:16:04;;;;;;;1999.90;999.90;;;25.20;89.40;;;;;;5056914;28;20024;-70
2023/04/27 06:18:32;;;;;;;1999.90;999.90;;;25.10;89.40;;;;;;5065176;28;20055;-70
2023/04/27 06:21:00;;;;;;;1999.90;999.90;;;25.00;89.50;;;;;;5060051;28;20036;-70
2023/04/27 06:23:28;;;;;;;1999.90;999.90;;;24.90;90.10;;;;;;5059427;28;20154;-70
2023/04/27 06:25:55;;;;;;;1999.90;999.90;;;24.80;90.00;;;;;;5059298;28;20029;-73
2023/04/27 06:28:23;;;;;;;1999.90;999.90;;;24.70;90.30;;;;;;5062648;28;20036;-70
2023/04/27 06:30:50;;;;;;;1999.90;999.90;;;24.60;90.50;;;;;;5059848;28;20459;-71
2023/04/27 06:33:17;;;;;;;1999.90;999.90;;;24.50;90.70;;;;;;5057779;28;20771;-71
2023/04/27 06:35:45;;;;;;;1999.90;999.90;;;24.40;91.00;;;;;;5058937;28;20111;-71
2023/04/27 06:38:12;;;;;;;1999.90;999.90;;;24.30;91.30;;;;;;5056977;28;20760;-71
2023/04/27 06:40:40;;;;;;;1999.90;999.90;;;24.20;91.40;;;;;;5058357;28;20029;-71
2023/04/27 06:43:07;;;;;;;1999.90;999.90;;;24.10;91.70;;;;;;5059363;28;20043;-70
2023/04/27 06:45:34;;;;;;;1999.90;999.90;;;24.00;91.70;;;;;;5056765;28;20025;-70
2023/04/27 06:48:02;;;;;;;1999.90;999.90;;;23.80;91.70;;;;;;5056640;28;20388;-71
2023/04/27 06:50:29;;;;;;;1999.90;999.90;;;23.70;91.90;;;;;;5059249;28;20751;-71
2023/04/27 06:52:56;;;;;;;1999.90;999.90;;;23.70;92.10;;;;;;5057158;28;20501;-72
2023/04/27 06:55:24;;;;;;;1999.90;999.90;;;23.60;92.00;;;;;;5051023;28;20049;-71
2023/04/27 06:57:51;;;;;;;1999.90;999.90;;;23.40;92.30;;;;;;5054073;28;20029;-72
2023/04/27 07:00:19;;;;;;;1999.90;999.90;;;23.40;92.40;;;;;;5052466;28;20142;-71
2023/04/27 07:02:46;;;;;;;1999.90;999.90;;;23.30;92.60;;;;;;5053856;28;20036;-71
2023/04/27 07:05:14;;;;;;;1999.90;999.90;;;23.10;92.90;;;;;;5054232;28;21125;-71
2023/04/27 07:07:41;;;;;;;1999.90;999.90;;;22.90;93.00;;;;;;5054591;28;20411;-71
2023/04/27 07:10:09;;;;;;;1999.90;999.90;;;22.80;93.10;;;;;;5053899;28;20052;-71
2023/04/27 07:12:37;;;;;;;1999.90;999.90;;;22.70;93.30;;;;;;5052060;28;20136;-72
2023/04/27 07:15:06;;;;;;;1999.90;999.90;;;22.60;93.50;;;;;;5053154;28;20048;-70
2023/04/27 07:17:33;;;;;;;1999.90;999.90;;;22.50;93.70;;;;;;5052231;28;20059;-70
2023/04/27 07:20:05;;;;;;;1999.90;999.90;;;22.40;93.90;;;;;;5052128;28;20112;-70
2023/04/27 07:22:33;;;;;;;1999.90;999.90;;;22.20;94.10;;;;;;5051510;28;20128;-70
2023/04/27 07:25:00;;;;;;;1999.90;999.90;;;22.10;94.20;;;;;;5051507;28;20541;-71
2023/04/27 07:27:27;;;;;;;1999.90;999.90;;;22.00;95.00;;;;;;5051611;28;20057;-72
2023/04/27 07:29:55;;;;;;;1999.90;999.90;;;21.90;94.70;;;;;;5052815;28;20025;-71
2023/04/27 07:32:22;;;;;;;1999.90;999.90;;;21.80;95.10;;;;;;5058303;28;20120;-71
2023/04/27 07:34:51;;;;;;;1999.90;999.90;;;21.70;95.50;;;;;;5067967;28;20036;-70
2023/04/27 07:37:18;;;;;;;1999.90;999.90;;;21.50;95.40;;;;;;5053951;28;20052;-70
2023/04/27 07:39:46;;;;;;;1999.90;999.90;;;21.50;95.90;;;;;;5053743;28;20163;-71
2023/04/27 07:42:14;;;;;;;1999.90;999.90;;;21.40;96.00;;;;;;5054330;28;20538;-71
2023/04/27 07:44:41;;;;;;;1999.90;999.90;;;21.30;96.60;;;;;;5056295;28;20033;-71
2023/04/27 07:47:09;;;;;;;1999.90;999.90;;;21.30;96.20;;;;;;5059462;28;20033;-71
2023/04/27 07:49:39;;;;;;;1999.90;999.90;;;21.40;96.90;;;;;;5056565;28;20027;-71
2023/04/27 07:52:06;;;;;;;1999.90;999.90;;;21.40;98.00;;;;;;5049303;28;20060;-71
2023/04/27 07:54:34;;;;;;;1999.90;999.90;;;21.40;98.90;;;;;;5059849;28;20036;-71
2023/04/27 07:57:07;;;;;;;1999.90;999.90;;;21.40;99.90;;;;;;5056418;28;20103;-71
2023/04/27 07:59:34;;;;;;;1999.90;999.90;;;21.40;99.90;;;;;;5060167;28;20087;-71
2023/04/27 08:02:01;;;;;;;1999.90;999.90;;;21.30;99.90;;;;;;5054932;28;20579;-71
2023/04/27 08:04:28;;;;;;;1999.90;999.90;;;21.30;99.90;;;;;;5057055;28;20086;-70
2023/04/27 08:06:56;;;;;;;1999.90;999.90;;;21.30;99.90;;;;;;5059400;28;20021;-71
2023/04/27 08:09:23;;;;;;;1999.90;999.90;;;21.30;99.90;;;;;;5059254;28;20074;-71
2023/04/27 08:11:50;;;;;;;1999.90;999.90;;;21.20;99.90;;;;;;5058779;28;20467;-70
2023/04/27 08:14:18;;;;;;;1999.90;999.90;;;21.10;99.90;;;;;;5058399;28;20037;-69
2023/04/27 08:16:45;;;;;;;1999.90;999.90;;;21.10;99.90;;;;;;5061658;28;20029;-71
2023/04/27 08:19:12;;;;;;;1999.90;999.90;;;21.00;99.90;;;;;;5055392;28;20060;-69
2023/04/27 08:21:40;;;;;;;1999.90;999.90;;;20.90;99.90;;;;;;5056645;28;20028;-71
2023/04/27 08:24:07;;;;;;;1999.90;999.90;;;20.90;99.90;;;;;;5057233;28;20041;-70
2023/04/27 08:26:34;;;;;;;1999.90;999.90;;;20.90;99.90;;;;;;5060620;28;20046;-70
2023/04/27 08:29:02;;;;;;;1999.90;999.90;;;20.80;99.90;;;;;;5056985;28;20087;-70
2023/04/27 08:31:29;;;;;;;1999.90;999.90;;;20.80;99.90;;;;;;5056586;28;20115;-72
2023/04/27 08:33:57;;;;;;;1999.90;999.90;;;20.80;99.90;;;;;;5051299;28;20480;-71
2023/04/27 08:36:26;;;;;;;1999.90;999.90;;;20.70;99.90;;;;;;5053766;28;20483;-70
2023/04/27 08:38:54;;;;;;;1999.90;999.90;;;20.70;99.90;;;;;;5054767;28;20029;-72
2023/04/27 08:41:22;;;;;;;1999.90;999.90;;;20.70;99.90;;;;;;5056056;28;20024;-71
2023/04/27 08:43:52;;;;;;;1999.90;999.90;;;20.60;99.90;;;;;;5063475;28;20068;-71
2023/04/27 08:46:21;;;;;;;1999.90;999.90;;;20.60;99.90;;;;;;5053467;28;20035;-71
2023/04/27 08:48:52;;;;;;;1999.90;999.90;;;20.50;99.90;;;;;;5053533;28;20060;-70
2023/04/27 08:51:20;;;;;;;1999.90;999.90;;;20.50;99.90;;;;;;5051337;28;20029;-71
2023/04/27 08:53:56;;;;;;;1999.90;999.90;;;20.40;99.90;;;;;;5060633;28;20562;-70
2023/04/27 08:56:27;;;;;;;1999.90;999.90;;;20.40;99.90;;;;;;5055344;28;20051;-71
2023/04/27 08:58:55;;;;;;;1999.90;999.90;;;20.40;99.90;;;;;;5051859;28;20033;-71
2023/04/27 09:01:25;;;;;;;1999.90;999.90;;;20.30;99.90;;;;;;5049638;28;20131;-70
2023/04/27 09:04:06;;;;;;;1999.90;999.90;;;20.30;99.90;;;;;;5049163;28;20037;-71
2023/04/27 09:06:35;;;;;;;1999.90;999.90;;;20.20;99.90;;;;;;5047149;28;20108;-71
2023/04/27 09:09:03;;;;;;;1999.90;999.90;;;20.20;99.90;;;;;;5053856;28;20040;-71
2023/04/27 09:11:34;;;;;;;1999.90;999.90;;;20.20;99.90;;;;;;5066824;28;20043;-70
2023/04/27 09:14:20;;;;;;;1999.90;999.90;;;20.10;99.90;;;;;;5048036;28;20033;-71
2023/04/27 09:16:58;;;;;;;1999.90;999.90;;;20.10;99.90;;;;;;5050802;28;20494;-71
2023/04/27 09:19:28;;;;;;;1999.90;999.90;;;20.00;99.90;;;;;;5063823;28;20040;-71
2023/04/27 09:22:14;;;;;;;1999.90;999.90;;;20.00;99.90;;;;;;5051278;28;20043;-72
2023/04/27 09:24:49;;;;;;;;;;;19.90;99.90;;;;;;5053482;28;20471;-70
2023/04/27 09:27:22;;;;;;;1999.90;999.90;;;19.90;99.90;;;;;;5052065;28;20287;-71
2023/04/27 09:29:49;;;;;;;1999.90;999.90;;;19.80;99.90;;;;;;5050504;28;20040;-71
2023/04/27 09:32:19;;;;;;;1999.90;999.90;;;19.90;99.90;;;;;;5053392;28;20115;-71
2023/04/27 09:34:47;;;;;;;1999.90;999.90;;;19.80;99.90;;;;;;5042805;28;20095;-71
2023/04/27 09:37:14;;;;;;;1999.90;999.90;;;19.80;99.90;;;;;;5044439;28;20082;-70
2023/04/27 09:39:42;;;;;;;1999.90;999.90;;;19.80;99.90;;;;;;5047897;28;20053;-71
2023/04/27 09:42:11;;;;;;;1999.90;999.90;;;19.80;99.90;;;;;;5056272;28;20051;-71
2023/04/27 09:44:39;;;;;;;1999.90;999.90;;;19.80;99.90;;;;;;5058415;28;20032;-70
2023/04/27 09:47:06;;;;;;;1999.90;999.90;;;19.70;99.90;;;;;;5053551;28;20029;-70
2023/04/27 09:49:35;;;;;;;1999.90;999.90;;;19.70;99.90;;;;;;5055776;28;20060;-71
2023/04/27 09:52:03;;;;;;;1999.90;999.90;;;19.60;99.90;;;;;;5051205;28;20041;-71
2023/04/27 09:54:33;;;;;;;1999.90;999.90;;;19.60;99.90;;;;;;5057389;28;20460;-71
2023/04/27 09:57:36;;;;;;;1999.90;999.90;;;19.50;99.90;;;;;;5057203;28;20025;-70
2023/04/27 10:00:28;;;;;;;1999.90;999.90;;;19.60;99.90;;;;;;5056170;28;20037;-70
2023/04/27 10:03:18;;;;;;;1999.90;999.90;;;19.50;99.90;;;;;;5049820;28;20402;-70
2023/04/27 10:06:11;;;;;;;1999.90;999.90;;;19.40;99.90;;;;;;5046358;28;20021;-70
2023/04/27 10:08:39;;;;;;;1999.90;999.90;;;19.30;99.90;;;;;;5045347;28;20420;-71
2023/04/27 10:11:20;;;;;;;1999.90;999.90;;;19.30;99.90;;;;;;5046261;28;20525;-72
2023/04/27 10:13:54;;;;;;;1999.90;999.90;;;19.30;99.90;;;;;;5053394;28;20126;-70
2023/04/27 10:16:22;;;;;;;1999.90;999.90;;;19.30;99.90;;;;;;5046965;28;20492;-70
2023/04/27 10:18:56;;;;;;;1999.90;999.90;;;19.10;99.90;;;;;;5047312;28;20392;-70
2023/04/27 10:21:23;;;;;;;1999.90;999.90;;;19.10;99.90;;;;;;5046646;28;20028;-71
2023/04/27 10:23:51;;;;;;;1999.90;999.90;;;19.10;99.90;;;;;;5049779;28;20075;-72
2023/04/27 10:26:26;;;;;;;1999.90;999.90;;;19.00;99.90;;;;;;5051201;28;20556;-71
2023/04/27 10:29:00;;;;;;;1999.90;999.90;;;19.00;99.90;;;;;;5065210;28;20479;-70
2023/04/27 10:31:29;;;;;;;1999.90;999.90;;;19.00;99.90;;;;;;5047728;28;20030;-70
2023/04/27 10:34:16;;;;;;;1999.90;999.90;;;19.00;99.90;;;;;;5053485;28;20483;-71
2023/04/27 10:36:44;;;;;;;1999.90;999.90;;;18.90;99.90;;;;;;5042809;28;20024;-71
2023/04/27 10:39:16;;;;;;;1999.90;999.90;;;18.90;99.90;;;;;;5046715;28;20037;-71
2023/04/27 10:41:54;;;;;;;1999.90;999.90;;;18.90;99.90;;;;;;5043004;28;20560;-69
2023/04/27 10:44:30;;;;;;;1999.90;999.90;;;18.90;99.90;;;;;;5034623;28;20480;-71
2023/04/27 10:47:00;;;;;;;1999.90;999.90;;;18.80;99.90;;;;;;5042782;28;20472;-71
2023/04/27 10:49:28;;;;;;;1999.90;999.90;;;18.80;99.90;;;;;;5046910;28;20498;-71
2023/04/27 10:51:58;;;;;;;1999.90;999.90;;;18.70;99.90;;;;;;5047924;28;20033;-71
2023/04/27 10:54:27;;;;;;;1999.90;999.90;;;18.70;99.90;;;;;;5050813;28;20033;-70
2023/04/27 10:57:15;;;;;;;1999.90;999.90;;;18.60;99.90;;;;;;5046540;28;20068;-70
2023/04/27 10:59:54;;;;;;;1999.90;999.90;;;18.60;99.90;;;;;;5052626;28;20033;-70
2023/04/27 11:02:29;;;;;;;1999.90;999.90;;;18.50;99.90;;;;;;5053427;28;20037;-69
2023/04/27 11:04:57;;;;;;;1999.90;999.90;;;18.40;99.90;;;;;;5053325;28;20027;-70
2023/04/27 11:07:28;;;;;;;1999.90;999.90;;;18.30;99.90;;;;;;5068419;28;20420;-69
2023/04/27 11:09:55;;;;;;;1999.90;999.90;;;18.20;99.90;;;;;;5053757;28;20394;-70
2023/04/27 11:12:23;;;;;;;1999.90;999.90;;;18.20;99.90;;;;;;5054887;28;20037;-70
2023/04/27 11:14:50;;;;;;;1999.90;999.90;;;18.10;99.90;;;;;;5054748;28;20475;-70
2023/04/27 11:17:31;;;;;;;1999.90;999.90;;;18.00;99.90;;;;;;5052629;28;20435;-70
2023/04/27 11:19:59;;;;;;;1999.90;999.90;;;18.00;99.90;;;;;;5064839;28;20433;-71
2023/04/27 11:22:26;;;;;;;1999.90;999.90;;;17.90;99.90;;;;;;5059964;28;20056;-72
2023/04/27 11:24:55;;;;;;;1999.90;999.90;;;17.90;99.90;;;;;;5055629;28;20629;-70
2023/04/27 11:27:24;;;;;;;1999.90;999.90;;;17.80;99.90;;;;;;5051519;28;20044;-71
2023/04/27 11:29:51;;;;;;;1999.90;999.90;;;17.80;99.90;;;;;;5053338;28;20427;-71
2023/04/27 11:32:20;;;;;;;1999.90;999.90;;;17.80;99.90;;;;;;5056969;28;20024;-70
2023/04/27 11:34:52;;;;;;;1999.90;999.90;;;17.70;99.90;;;;;;5056086;28;20032;-71
2023/04/27 11:37:27;;;;;;;1999.90;999.90;;;17.70;99.90;;;;;;5056570;28;20440;-69
2023/04/27 11:39:56;;;;;;;1999.90;999.90;;;17.60;99.90;;;;;;5056537;28;20037;-69
2023/04/27 11:42:27;;;;;;;1999.90;999.90;;;17.60;99.90;;;;;;5054707;28;20089;-72
2023/04/27 11:44:56;;;;;;;1999.90;999.90;;;17.50;99.90;;;;;;5057232;28;20072;-71
2023/04/27 11:47:26;;;;;;;1999.90;999.90;;;17.50;99.90;;;;;;5055979;28;20069;-71
2023/04/27 11:49:58;;;;;;;1999.90;999.90;;;17.40;99.90;;;;;;5060958;28;20033;-70
2023/04/27 11:52:33;;;;;;;1999.90;999.90;;;17.30;99.90;;;;;;5054338;28;20089;-71
2023/04/27 11:55:03;;;;;;;1999.90;999.90;;;17.20;99.90;;;;;;5054199;28;20112;-70
2023/04/27 11:57:35;;;;;;;1999.90;999.90;;;17.20;99.90;;;;;;5056404;28;20036;-70
2023/04/27 12:00:12;;;;;;;1999.90;999.90;;;17.10;99.90;;;;;;5048613;28;20029;-71
2023/04/27 12:02:41;;;;;;;1999.90;999.90;;;17.00;99.90;;;;;;5042105;28;20502;-69
2023/04/27 12:05:10;;;;;;;1999.90;999.90;;;17.00;99.90;;;;;;5046648;28;20079;-72
2023/04/27 12:07:38;;;;;;;1999.90;999.90;;;17.00;99.90;;;;;;5051007;28;20033;-69